Time;durP1;ratioP1;P1;durP2;ratioP2;P2;SDS_P1;SDS_P2;PMS_P1;PMS_P2;Temp;Humidity;BMP_temperature;BMP_pressure;BME280_temperature;BME280_humidity;BME280_pressure;Samples;Min_cycle;Max_cycle;Signal;HPM_P1;HPM_P2
2023/05/13 00:00:57;;;;;;;38.22;6.40;;;;;;;;;;6261204;28;20366;-76
2023/05/13 00:04:02;;;;;;;42.85;6.18;;;;;;;;;;6245919;28;20320;-77
2023/05/13 00:07:07;;;;;;;29.58;5.13;;;;;;;;;;6236394;28;20312;-76
2023/05/13 00:10:13;;;;;;;23.42;4.88;;;;;;;;;;6259977;28;20307;-77
2023/05/13 00:13:19;;;;;;;36.83;6.05;;;;;;;;;;6245435;28;20303;-76
2023/05/13 00:16:26;;;;;;;16.58;4.43;;;;;;;;;;6260775;28;20299;-76
2023/05/13 00:19:31;;;;;;;23.40;4.57;;;;;;;;;;6241600;28;20296;-77
2023/05/13 00:22:36;;;;;;;18.55;4.75;;;;;;;;;;6257299;28;20488;-77
2023/05/13 00:25:43;;;;;;;15.75;4.60;;;;;;;;;;6235746;28;20538;-77
2023/05/13 00:28:49;;;;;;;14.73;4.68;;;;;;;;;;6247996;28;20295;-77
2023/05/13 00:31:55;;;;;;;35.65;5.38;;;;;;;;;;6259086;28;20549;-77
2023/05/13 00:35:00;;;;;;;35.60;5.80;;;;;;;;;;6237763;28;20355;-76
2023/05/13 00:38:05;;;;;;;35.15;5.07;;;;;;;;;;6256870;28;20287;-76
2023/05/13 00:41:11;;;;;;;62.42;7.35;;;;;;;;;;6259803;28;20295;-77
2023/05/13 00:44:18;;;;;;;50.00;6.47;;;;;;;;;;6241887;28;20308;-76
2023/05/13 00:47:23;;;;;;;39.78;5.18;;;;;;;;;;6235803;28;20289;-77
2023/05/13 00:50:29;;;;;;;27.50;5.38;;;;;;;;;;6256251;28;20592;-76
2023/05/13 00:53:34;;;;;;;20.90;5.18;;;;;;;;;;6259624;28;20405;-77
2023/05/13 00:56:39;;;;;;;33.45;5.38;;;;;;;;;;6259742;28;20571;-76
2023/05/13 00:59:45;;;;;;;21.58;5.18;;;;;;;;;;6239064;28;20384;-76
2023/05/13 01:02:54;;;;;;;28.58;4.93;;;;;;;;;;6243564;28;20300;-76
2023/05/13 01:06:04;;;;;;;38.80;5.60;;;;;;;;;;6260427;28;20295;-77
2023/05/13 01:09:15;;;;;;;21.08;4.97;;;;;;;;;;6243299;28;20297;-76
2023/05/13 01:12:26;;;;;;;18.05;4.90;;;;;;;;;;6237894;28;20292;-76
2023/05/13 01:15:34;;;;;;;9.38;4.85;;;;;;;;;;6220725;28;20297;-77
2023/05/13 01:18:43;;;;;;;21.50;4.97;;;;;;;;;;6221467;28;20300;-77
2023/05/13 01:21:54;;;;;;;19.88;5.18;;;;;;;;;;6234984;28;20288;-76
2023/05/13 01:25:00;;;;;;;16.92;4.80;;;;;;;;;;6212671;28;20305;-77
2023/05/13 01:28:06;;;;;;;22.98;5.13;;;;;;;;;;6215531;28;20573;-76
2023/05/13 01:31:13;;;;;;;32.08;5.75;;;;;;;;;;6233891;28;20304;-76
2023/05/13 01:34:19;;;;;;;27.35;5.50;;;;;;;;;;6233370;28;20300;-76
2023/05/13 01:37:25;;;;;;;19.83;4.47;;;;;;;;;;6211489;28;20293;-76
2023/05/13 01:40:31;;;;;;;20.65;5.40;;;;;;;;;;6232728;28;20271;-77
2023/05/13 01:43:42;;;;;;;14.35;5.15;;;;;;;;;;6231263;28;20487;-77
2023/05/13 01:46:49;;;;;;;28.05;6.65;;;;;;;;;;6209378;28;20305;-77
2023/05/13 01:49:55;;;;;;;34.20;6.03;;;;;;;;;;6230118;28;20566;-76
2023/05/13 01:53:02;;;;;;;17.48;6.03;;;;;;;;;;6228455;28;20316;-76
2023/05/13 01:56:10;;;;;;;14.02;5.22;;;;;;;;;;6210129;28;20289;-76
2023/05/13 01:59:15;;;;;;;7.68;4.85;;;;;;;;;;6224193;28;20332;-76
2023/05/13 02:02:20;;;;;;;20.75;4.90;;;;;;;;;;6232837;28;20288;-76
2023/05/13 02:05:25;;;;;;;14.35;5.40;;;;;;;;;;6224434;28;20300;-76
2023/05/13 02:08:33;;;;;;;12.80;4.57;;;;;;;;;;6218350;28;20292;-76
2023/05/13 02:11:40;;;;;;;5.78;4.70;;;;;;;;;;6241387;28;20312;-76
2023/05/13 02:14:49;;;;;;;5.13;4.20;;;;;;;;;;6245740;28;20312;-76
2023/05/13 02:17:54;;;;;;;5.22;4.22;;;;;;;;;;6239096;28;20296;-76
2023/05/13 02:20:59;;;;;;;4.88;4.47;;;;;;;;;;6245913;28;20296;-77
2023/05/13 02:24:07;;;;;;;11.48;5.00;;;;;;;;;;6238576;28;20320;-76
2023/05/13 02:27:15;;;;;;;6.10;3.95;;;;;;;;;;6238588;28;20296;-77
2023/05/13 02:30:25;;;;;;;6.88;4.10;;;;;;;;;;6260690;28;20304;-76
2023/05/13 02:33:30;;;;;;;5.05;4.22;;;;;;;;;;6261027;28;20323;-77
2023/05/13 02:36:35;;;;;;;4.95;4.45;;;;;;;;;;6261839;28;20371;-76
2023/05/13 02:39:44;;;;;;;5.38;4.60;;;;;;;;;;6277678;28;20304;-76
2023/05/13 02:42:50;;;;;;;5.85;3.83;;;;;;;;;;6261141;28;20291;-76
2023/05/13 02:46:00;;;;;;;8.02;4.30;;;;;;;;;;6261562;28;20483;-76
2023/05/13 02:49:05;;;;;;;12.00;4.53;;;;;;;;;;6262362;28;20300;-77
2023/05/13 02:52:11;;;;;;;6.47;4.43;;;;;;;;;;6262426;28;20447;-76
2023/05/13 02:55:18;;;;;;;7.40;4.30;;;;;;;;;;6261235;28;20307;-76
2023/05/13 02:58:23;;;;;;;10.40;4.72;;;;;;;;;;6261099;28;20301;-76
2023/05/13 03:01:29;;;;;;;7.35;4.65;;;;;;;;;;6235410;28;20280;-76
2023/05/13 03:04:35;;;;;;;4.93;4.50;;;;;;;;;;6235937;28;20442;-77
2023/05/13 03:07:40;;;;;;;4.65;4.28;;;;;;;;;;6259901;28;20263;-76
2023/05/13 03:10:47;;;;;;;5.45;4.97;;;;;;;;;;6236745;28;20264;-77
2023/05/13 03:13:53;;;;;;;5.22;4.70;;;;;;;;;;6239208;28;20287;-76
2023/05/13 03:16:58;;;;;;;8.57;4.45;;;;;;;;;;6264696;28;20281;-76
2023/05/13 03:20:04;;;;;;;4.75;4.50;;;;;;;;;;6265480;28;20280;-76
2023/05/13 03:23:10;;;;;;;6.45;4.47;;;;;;;;;;6260004;28;20304;-75
2023/05/13 03:26:17;;;;;;;5.00;4.47;;;;;;;;;;6238955;28;20304;-76
2023/05/13 03:29:22;;;;;;;6.93;4.63;;;;;;;;;;6236715;28;20296;-76
2023/05/13 03:32:32;;;;;;;4.55;4.35;;;;;;;;;;6254405;28;20284;-77
2023/05/13 03:35:37;;;;;;;5.20;4.90;;;;;;;;;;6219995;28;20576;-77
2023/05/13 03:38:43;;;;;;;12.57;4.50;;;;;;;;;;6235334;28;20296;-77
2023/05/13 03:41:49;;;;;;;6.05;4.80;;;;;;;;;;6246778;28;20295;-76
2023/05/13 03:44:55;;;;;;;6.40;4.90;;;;;;;;;;6275913;28;20328;-76
2023/05/13 03:48:00;;;;;;;7.60;5.10;;;;;;;;;;6276205;28;20426;-77
2023/05/13 03:51:06;;;;;;;8.55;5.18;;;;;;;;;;6278355;28;20292;-76
2023/05/13 03:54:11;;;;;;;7.43;4.95;;;;;;;;;;6276181;28;20304;-77
2023/05/13 03:57:18;;;;;;;9.05;4.57;;;;;;;;;;6244796;28;20305;-76
2023/05/13 04:00:23;;;;;;;4.80;4.50;;;;;;;;;;6234856;28;20296;-77
2023/05/13 04:03:30;;;;;;;6.22;4.30;;;;;;;;;;6250990;28;20288;-77
2023/05/13 04:06:35;;;;;;;4.68;4.10;;;;;;;;;;6242126;28;20300;-77
2023/05/13 04:09:40;;;;;;;4.18;3.90;;;;;;;;;;6234667;28;20300;-77
2023/05/13 04:12:46;;;;;;;7.65;4.53;;;;;;;;;;6234895;28;20292;-76
2023/05/13 04:15:53;;;;;;;7.35;4.43;;;;;;;;;;6255042;28;20295;-77
2023/05/13 04:18:58;;;;;;;5.88;4.43;;;;;;;;;;6238092;28;20296;-76
2023/05/13 04:22:04;;;;;;;8.60;4.20;;;;;;;;;;6236139;28;20559;-76
2023/05/13 04:25:11;;;;;;;4.70;3.88;;;;;;;;;;6232254;28;20301;-77
2023/05/13 04:28:33;;;;;;;11.07;4.40;;;;;;;;;;6248542;28;20288;-76
2023/05/13 04:31:39;;;;;;;4.35;4.05;;;;;;;;;;6235025;28;20452;-76
2023/05/13 04:34:44;;;;;;;4.78;4.35;;;;;;;;;;6236863;28;20315;-76
2023/05/13 04:37:49;;;;;;;4.97;4.10;;;;;;;;;;6235873;28;20304;-76
2023/05/13 04:40:56;;;;;;;5.40;4.32;;;;;;;;;;6234749;28;20292;-77
2023/05/13 04:44:12;;;;;;;4.63;4.15;;;;;;;;;;6233237;28;20288;-76
2023/05/13 04:47:19;;;;;;;4.55;4.00;;;;;;;;;;6234423;28;20446;-77
2023/05/13 04:50:24;;;;;;;4.60;4.18;;;;;;;;;;6235309;28;20301;-77
2023/05/13 04:53:30;;;;;;;4.80;4.40;;;;;;;;;;6233301;28;20292;-76
2023/05/13 04:56:39;;;;;;;4.18;4.03;;;;;;;;;;6234232;28;20300;-76
2023/05/13 04:59:45;;;;;;;3.85;3.72;;;;;;;;;;6233787;28;20473;-76
2023/05/13 05:02:51;;;;;;;11.60;4.53;;;;;;;;;;6233501;28;20324;-77
2023/05/13 05:05:59;;;;;;;4.45;4.05;;;;;;;;;;6234108;28;20605;-76
2023/05/13 05:09:04;;;;;;;7.75;4.20;;;;;;;;;;6233728;28;20308;-76
2023/05/13 05:12:10;;;;;;;4.30;4.03;;;;;;;;;;6248467;28;20287;-76
2023/05/13 05:15:19;;;;;;;4.60;4.20;;;;;;;;;;6258231;28;20307;-77
2023/05/13 05:18:28;;;;;;;5.45;4.03;;;;;;;;;;6225087;28;20430;-77
2023/05/13 05:21:34;;;;;;;7.18;4.13;;;;;;;;;;6233918;28;20288;-76
2023/05/13 05:24:39;;;;;;;5.70;3.88;;;;;;;;;;6251634;28;20292;-76
2023/05/13 05:27:46;;;;;;;6.25;3.53;;;;;;;;;;6274182;28;20295;-76
2023/05/13 05:30:54;;;;;;;12.05;4.32;;;;;;;;;;6274565;28;20304;-77
2023/05/13 05:34:03;;;;;;;3.90;3.60;;;;;;;;;;6241258;28;20564;-76
2023/05/13 05:37:12;;;;;;;4.07;3.78;;;;;;;;;;6264839;28;20307;-76
2023/05/13 05:40:20;;;;;;;11.55;4.10;;;;;;;;;;6257509;28;20299;-77
2023/05/13 05:43:27;;;;;;;4.15;3.53;;;;;;;;;;6274188;28;20287;-77
2023/05/13 05:46:36;;;;;;;8.95;3.90;;;;;;;;;;6260828;28;20291;-76
2023/05/13 05:49:41;;;;;;;8.45;4.00;;;;;;;;;;6250270;28;20472;-76
2023/05/13 05:52:46;;;;;;;11.15;3.92;;;;;;;;;;6236815;28;20277;-76
2023/05/13 05:55:52;;;;;;;7.15;4.28;;;;;;;;;;6272799;28;20385;-76
2023/05/13 05:58:58;;;;;;;3.58;3.40;;;;;;;;;;6237751;28;20292;-77
2023/05/13 06:02:06;;;;;;;3.75;3.50;;;;;;;;;;6243237;28;20292;-76
2023/05/13 06:05:13;;;;;;;4.50;4.20;;;;;;;;;;6255495;28;20396;-76
2023/05/13 06:08:19;;;;;;;5.05;4.00;;;;;;;;;;6260780;28;20348;-76
2023/05/13 06:11:24;;;;;;;4.00;3.58;;;;;;;;;;6263872;28;20572;-76
2023/05/13 06:14:29;;;;;;;5.63;3.40;;;;;;;;;;6254965;28;20561;-76
2023/05/13 06:17:35;;;;;;;4.75;3.28;;;;;;;;;;6253762;28;20288;-77
2023/05/13 06:20:42;;;;;;;8.43;3.83;;;;;;;;;;6237880;28;20304;-76
2023/05/13 06:23:47;;;;;;;3.88;3.55;;;;;;;;;;6239565;28;20304;-78
2023/05/13 06:26:52;;;;;;;4.60;3.58;;;;;;;;;;6238432;28;20295;-76
2023/05/13 06:29:57;;;;;;;3.20;2.95;;;;;;;;;;6238705;28;20301;-77
2023/05/13 06:33:04;;;;;;;5.40;3.47;;;;;;;;;;6238592;28;20549;-76
2023/05/13 06:36:12;;;;;;;3.63;3.30;;;;;;;;;;6238670;28;20293;-76
2023/05/13 06:39:17;;;;;;;3.65;2.95;;;;;;;;;;6236523;28;20304;-76
2023/05/13 06:42:22;;;;;;;3.22;2.95;;;;;;;;;;6237225;28;20300;-76
2023/05/13 06:45:35;;;;;;;3.58;3.10;;;;;;;;;;6261026;28;20587;-77
2023/05/13 06:48:42;;;;;;;6.93;3.17;;;;;;;;;;6260955;28;20288;-77
2023/05/13 06:51:47;;;;;;;3.63;2.97;;;;;;;;;;6278235;28;20291;-77
2023/05/13 06:54:52;;;;;;;8.90;3.53;;;;;;;;;;6262251;28;20395;-76
2023/05/13 06:57:57;;;;;;;8.85;3.50;;;;;;;;;;6252382;28;20316;-78
2023/05/13 07:01:03;;;;;;;9.77;3.22;;;;;;;;;;6241509;28;20300;-76
2023/05/13 07:04:09;;;;;;;14.10;3.38;;;;;;;;;;6235922;28;20304;-77
2023/05/13 07:07:14;;;;;;;7.38;3.10;;;;;;;;;;6236852;28;20292;-77
2023/05/13 07:10:20;;;;;;;5.20;3.17;;;;;;;;;;6260932;28;20396;-77
2023/05/13 07:13:25;;;;;;;3.78;3.20;;;;;;;;;;6261515;28;20595;-77
2023/05/13 07:16:30;;;;;;;7.60;3.00;;;;;;;;;;6260984;28;20271;-77
2023/05/13 07:19:37;;;;;;;6.15;3.40;;;;;;;;;;6252987;28;20294;-77
2023/05/13 07:22:42;;;;;;;10.10;3.13;;;;;;;;;;6238659;28;20268;-76
2023/05/13 07:25:48;;;;;;;6.40;2.88;;;;;;;;;;6274593;28;20263;-78
2023/05/13 07:28:53;;;;;;;3.83;2.70;;;;;;;;;;6244797;28;20284;-76
2023/05/13 07:31:58;;;;;;;2.75;2.53;;;;;;;;;;6241334;28;20288;-78
2023/05/13 07:35:05;;;;;;;3.03;2.92;;;;;;;;;;6254895;28;20280;-76
2023/05/13 07:38:11;;;;;;;3.25;2.90;;;;;;;;;;6257254;28;20298;-77
2023/05/13 07:41:17;;;;;;;4.22;2.95;;;;;;;;;;6254298;28;20296;-77
2023/05/13 07:44:22;;;;;;;7.15;2.90;;;;;;;;;;6234938;28;20300;-78
2023/05/13 07:47:27;;;;;;;4.53;2.90;;;;;;;;;;6244782;28;20296;-78
2023/05/13 07:50:34;;;;;;;6.05;3.00;;;;;;;;;;6250701;28;20295;-78
2023/05/13 07:53:39;;;;;;;3.22;2.92;;;;;;;;;;6245796;28;20291;-77
2023/05/13 07:56:45;;;;;;;5.13;2.90;;;;;;;;;;6250716;28;20343;-76
2023/05/13 07:59:51;;;;;;;3.80;2.92;;;;;;;;;;6234141;28;20300;-77
2023/05/13 08:02:56;;;;;;;3.42;2.88;;;;;;;;;;6247550;28;20434;-78
2023/05/13 08:06:03;;;;;;;3.53;2.90;;;;;;;;;;6259247;28;20323;-77
2023/05/13 08:09:11;;;;;;;4.35;2.78;;;;;;;;;;6251195;28;20296;-77
2023/05/13 08:12:16;;;;;;;4.75;2.75;;;;;;;;;;6236012;28;20339;-77
2023/05/13 08:15:21;;;;;;;3.13;2.90;;;;;;;;;;6259126;28;20295;-76
2023/05/13 08:18:26;;;;;;;6.03;3.17;;;;;;;;;;6260570;28;20301;-77
2023/05/13 08:21:33;;;;;;;5.30;2.80;;;;;;;;;;6243531;28;20473;-78
2023/05/13 08:24:39;;;;;;;5.90;2.97;;;;;;;;;;6235738;28;20448;-78
2023/05/13 08:27:45;;;;;;;8.65;3.13;;;;;;;;;;6234861;28;20300;-76
2023/05/13 08:30:50;;;;;;;3.35;3.05;;;;;;;;;;6236334;28;20296;-77
2023/05/13 08:33:55;;;;;;;3.30;3.10;;;;;;;;;;6235253;28;20292;-77
2023/05/13 08:37:02;;;;;;;4.78;2.92;;;;;;;;;;6235559;28;20308;-76
2023/05/13 08:40:08;;;;;;;10.40;3.42;;;;;;;;;;6234969;28;20296;-77
2023/05/13 08:43:16;;;;;;;4.43;2.42;;;;;;;;;;6217513;28;20292;-76
2023/05/13 08:46:25;;;;;;;9.65;3.42;;;;;;;;;;6259282;28;20564;-77
2023/05/13 08:49:30;;;;;;;5.18;2.88;;;;;;;;;;6258218;28;20395;-76
2023/05/13 08:52:36;;;;;;;3.20;2.92;;;;;;;;;;6234807;28;20308;-77
2023/05/13 08:55:41;;;;;;;13.90;3.15;;;;;;;;;;6234700;28;20375;-78
2023/05/13 08:58:46;;;;;;;3.17;2.97;;;;;;;;;;6236664;28;20300;-77
2023/05/13 09:01:53;;;;;;;8.90;3.35;;;;;;;;;;6234895;28;20292;-75
2023/05/13 09:05:02;;;;;;;7.88;2.75;;;;;;;;;;6249183;28;20362;-76
2023/05/13 09:08:09;;;;;;;8.32;3.13;;;;;;;;;;6253041;28;20316;-75
2023/05/13 09:11:14;;;;;;;7.72;2.75;;;;;;;;;;6234382;28;20284;-76
2023/05/13 09:14:20;;;;;;;9.93;2.92;;;;;;;;;;6241154;28;20287;-77
2023/05/13 09:17:25;;;;;;;4.43;2.85;;;;;;;;;;6252343;28;20280;-76
2023/05/13 09:20:31;;;;;;;8.50;2.83;;;;;;;;;;6254063;28;20568;-76
2023/05/13 09:23:38;;;;;;;8.20;3.17;;;;;;;;;;6243112;28;20365;-75
2023/05/13 09:26:43;;;;;;;4.32;2.60;;;;;;;;;;6247560;28;20573;-73
2023/05/13 09:29:48;;;;;;;8.15;3.10;;;;;;;;;;6241881;28;20292;-74
2023/05/13 09:33:07;;;;;;;8.30;2.90;;;;;;;;;;6245510;28;20296;-73
2023/05/13 09:36:13;;;;;;;4.35;3.05;;;;;;;;;;6244760;28;20296;-75
2023/05/13 09:39:19;;;;;;;6.40;2.83;;;;;;;;;;6248718;28;20307;-76
2023/05/13 09:42:25;;;;;;;9.65;3.33;;;;;;;;;;6243134;28;20304;-76
2023/05/13 09:45:31;;;;;;;5.88;2.70;;;;;;;;;;6248856;28;20300;-76
2023/05/13 09:48:36;;;;;;;2.63;2.42;;;;;;;;;;6250014;28;20484;-74
2023/05/13 09:51:45;;;;;;;3.17;2.88;;;;;;;;;;6240514;28;20293;-76
2023/05/13 09:54:51;;;;;;;3.42;2.90;;;;;;;;;;6253163;28;20567;-76
2023/05/13 09:57:56;;;;;;;4.55;2.85;;;;;;;;;;6240470;28;20452;-77
2023/05/13 10:01:01;;;;;;;4.30;2.97;;;;;;;;;;6237977;28;20304;-75
2023/05/13 10:04:07;;;;;;;8.07;3.35;;;;;;;;;;6232160;28;20298;-76
2023/05/13 10:07:13;;;;;;;7.88;3.22;;;;;;;;;;6256789;28;20292;-75
2023/05/13 10:10:20;;;;;;;5.70;3.10;;;;;;;;;;6257540;28;20288;-77
2023/05/13 10:13:26;;;;;;;3.90;2.85;;;;;;;;;;6257720;28;20572;-74
2023/05/13 10:16:32;;;;;;;10.38;2.95;;;;;;;;;;6256858;28;20279;-76
2023/05/13 10:19:38;;;;;;;2.88;2.65;;;;;;;;;;6249281;28;20300;-77
2023/05/13 10:22:44;;;;;;;5.55;3.20;;;;;;;;;;6235418;28;20269;-75
2023/05/13 10:25:51;;;;;;;4.63;3.10;;;;;;;;;;6255420;28;20284;-75
2023/05/13 10:28:56;;;;;;;2.92;2.70;;;;;;;;;;6243825;28;20300;-78
2023/05/13 10:32:01;;;;;;;3.15;2.95;;;;;;;;;;6257311;28;20300;-76
2023/05/13 10:35:10;;;;;;;7.18;3.05;;;;;;;;;;6252116;28;20352;-75
2023/05/13 10:38:20;;;;;;;5.50;2.65;;;;;;;;;;6239579;28;20296;-74
2023/05/13 10:41:58;;;;;;;4.50;2.78;;;;;;;;;;6238680;28;20296;-76
2023/05/13 10:45:05;;;;;;;7.38;2.95;;;;;;;;;;6229215;28;20300;-75
2023/05/13 10:48:13;;;;;;;7.63;3.00;;;;;;;;;;6231447;28;20301;-75
2023/05/13 10:51:19;;;;;;;7.25;3.10;;;;;;;;;;6228602;28;20584;-75
2023/05/13 10:54:25;;;;;;;3.03;2.53;;;;;;;;;;6221880;28;20297;-75
2023/05/13 10:57:31;;;;;;;4.47;3.20;;;;;;;;;;6229431;28;20292;-77
2023/05/13 11:00:38;;;;;;;3.72;2.47;;;;;;;;;;6230744;28;20292;-75
2023/05/13 11:03:52;;;;;;;6.05;2.70;;;;;;;;;;6235432;28;20300;-75
2023/05/13 11:07:15;;;;;;;6.22;2.47;;;;;;;;;;6238153;28;20292;-75
2023/05/13 11:10:28;;;;;;;5.22;3.05;;;;;;;;;;6221309;28;20297;-73
2023/05/13 11:13:37;;;;;;;3.38;3.08;;;;;;;;;;6244752;28;20424;-75
2023/05/13 11:16:50;;;;;;;6.22;3.00;;;;;;;;;;6261514;28;20264;-74
2023/05/13 11:19:55;;;;;;;5.53;2.90;;;;;;;;;;6241689;28;20566;-70
2023/05/13 11:23:00;;;;;;;2.63;2.42;;;;;;;;;;6241447;28;20292;-77
2023/05/13 11:26:13;;;;;;;3.55;2.47;;;;;;;;;;6262393;28;20295;-75
2023/05/13 11:29:29;;;;;;;2.60;2.40;;;;;;;;;;6245059;28;20344;-74
2023/05/13 11:32:55;;;;;;;2.90;2.50;;;;;;;;;;6239542;28;20281;-74
2023/05/13 11:36:00;;;;;;;7.70;2.80;;;;;;;;;;6262385;28;20450;-78
2023/05/13 11:39:07;;;;;;;4.15;3.08;;;;;;;;;;6248727;28;20320;-74
2023/05/13 11:42:12;;;;;;;3.05;2.88;;;;;;;;;;6238161;28;20292;-74
2023/05/13 11:45:18;;;;;;;5.68;2.53;;;;;;;;;;6259327;28;20375;-76
2023/05/13 11:48:25;;;;;;;3.28;2.95;;;;;;;;;;6253780;28;20280;-74
2023/05/13 11:51:31;;;;;;;3.17;2.97;;;;;;;;;;6236699;28;20292;-76
2023/05/13 11:54:45;;;;;;;9.32;3.40;;;;;;;;;;6253372;28;20295;-74
2023/05/13 11:57:50;;;;;;;5.18;2.50;;;;;;;;;;6257921;28;20288;-74
2023/05/13 12:00:55;;;;;;;2.38;2.28;;;;;;;;;;6256778;28;20296;-76
2023/05/13 12:04:03;;;;;;;3.03;2.75;;;;;;;;;;6247844;28;20585;-76
2023/05/13 12:07:12;;;;;;;4.65;3.00;;;;;;;;;;6236028;28;20295;-76
2023/05/13 12:10:17;;;;;;;2.45;2.40;;;;;;;;;;6258923;28;20456;-76
2023/05/13 12:13:22;;;;;;;4.20;2.78;;;;;;;;;;6243306;28;20478;-73
2023/05/13 12:16:28;;;;;;;3.45;2.78;;;;;;;;;;6259835;28;20291;-76
2023/05/13 12:19:36;;;;;;;3.03;2.60;;;;;;;;;;6259888;28;20307;-76
2023/05/13 12:22:53;;;;;;;3.45;3.35;;;;;;;;;;6259710;28;20268;-73
2023/05/13 12:25:57;;;;;;;5.35;2.95;;;;;;;;;;6260356;28;20288;-75
2023/05/13 12:29:03;;;;;;;4.10;3.00;;;;;;;;;;6259535;28;20300;-76
2023/05/13 12:32:10;;;;;;;3.85;3.53;;;;;;;;;;6260437;28;20291;-76
2023/05/13 12:35:17;;;;;;;18.52;10.05;;;;;;;;;;6258649;28;20291;-76
2023/05/13 12:38:24;;;;;;;43.85;20.27;;;;;;;;;;6258017;28;20291;-74
2023/05/13 12:41:30;;;;;;;4.90;4.60;;;;;;;;;;6258872;28;20296;-77
2023/05/13 12:44:35;;;;;;;36.90;22.70;;;;;;;;;;6259897;28;20342;-77
2023/05/13 12:47:50;;;;;;;21.30;11.32;;;;;;;;;;6259708;28;20283;-74
2023/05/13 12:50:56;;;;;;;24.13;11.63;;;;;;;;;;6262420;28;20292;-75
2023/05/13 12:54:05;;;;;;;19.38;9.75;;;;;;;;;;6261191;28;20316;-76
2023/05/13 12:57:11;;;;;;;9.10;5.63;;;;;;;;;;6260080;28;20287;-76
2023/05/13 13:00:19;;;;;;;6.80;3.90;;;;;;;;;;6258701;28;20296;-75
2023/05/13 13:03:24;;;;;;;8.85;3.88;;;;;;;;;;6258895;28;20287;-76
2023/05/13 13:06:31;;;;;;;4.88;4.43;;;;;;;;;;6258973;28;20287;-75
2023/05/13 13:09:36;;;;;;;9.60;3.60;;;;;;;;;;6257621;28;20588;-76
2023/05/13 13:12:42;;;;;;;4.45;2.90;;;;;;;;;;6257403;28;20306;-76
2023/05/13 13:15:50;;;;;;;6.38;2.85;;;;;;;;;;6259630;28;20291;-75
2023/05/13 13:18:57;;;;;;;3.20;2.90;;;;;;;;;;6258932;28;20311;-76
2023/05/13 13:22:07;;;;;;;3.00;2.80;;;;;;;;;;6259233;28;20292;-75
2023/05/13 13:25:13;;;;;;;6.15;3.35;;;;;;;;;;6258835;28;20456;-76
2023/05/13 13:28:18;;;;;;;12.75;3.25;;;;;;;;;;6259000;28;20296;-76
2023/05/13 13:31:23;;;;;;;11.70;3.72;;;;;;;;;;6258925;28;20530;-76
2023/05/13 13:34:29;;;;;;;4.10;3.00;;;;;;;;;;6257978;28;20549;-75
2023/05/13 13:37:35;;;;;;;6.47;2.97;;;;;;;;;;6258224;28;20272;-77
2023/05/13 13:40:41;;;;;;;3.90;2.90;;;;;;;;;;6259172;28;20271;-75
2023/05/13 13:43:47;;;;;;;3.15;2.92;;;;;;;;;;6258357;28;20295;-75
2023/05/13 13:46:52;;;;;;;3.58;3.38;;;;;;;;;;6259470;28;20288;-76
2023/05/13 13:49:57;;;;;;;6.03;2.95;;;;;;;;;;6258354;28;20299;-76
2023/05/13 13:53:04;;;;;;;8.10;3.30;;;;;;;;;;6258366;28;20284;-76
2023/05/13 13:56:09;;;;;;;3.97;2.97;;;;;;;;;;6258967;28;20296;-76
2023/05/13 13:59:14;;;;;;;4.45;3.22;;;;;;;;;;6259087;28;20288;-76
2023/05/13 14:02:19;;;;;;;3.25;2.90;;;;;;;;;;6260639;28;20299;-76
2023/05/13 14:05:24;;;;;;;3.40;3.20;;;;;;;;;;6261671;28;20291;-76
2023/05/13 14:08:31;;;;;;;3.88;3.50;;;;;;;;;;6263948;28;20563;-77
2023/05/13 14:11:36;;;;;;;7.72;2.90;;;;;;;;;;6261470;28;20299;-75
2023/05/13 14:14:41;;;;;;;7.80;3.00;;;;;;;;;;6258484;28;20556;-76
2023/05/13 14:17:46;;;;;;;3.10;2.85;;;;;;;;;;6262964;28;20291;-75
2023/05/13 14:20:51;;;;;;;4.70;3.28;;;;;;;;;;6264020;28;20295;-75
2023/05/13 14:23:58;;;;;;;6.15;3.13;;;;;;;;;;6263153;28;20300;-75
2023/05/13 14:27:03;;;;;;;3.47;3.20;;;;;;;;;;6263478;28;20287;-75
2023/05/13 14:30:09;;;;;;;26.42;3.88;;;;;;;;;;6263119;28;20301;-75
2023/05/13 14:33:14;;;;;;;6.20;3.60;;;;;;;;;;6262982;28;20292;-75
2023/05/13 14:36:21;;;;;;;6.55;3.25;;;;;;;;;;6263201;28;20292;-75
2023/05/13 14:39:29;;;;;;;3.65;3.35;;;;;;;;;;6262634;28;20291;-75
2023/05/13 14:42:34;;;;;;;2.88;2.55;;;;;;;;;;6262939;28;20306;-76
2023/05/13 14:45:39;;;;;;;4.75;2.88;;;;;;;;;;6263665;28;20488;-74
2023/05/13 14:48:44;;;;;;;4.60;2.80;;;;;;;;;;6262791;28;20299;-76
2023/05/13 14:51:49;;;;;;;5.82;3.17;;;;;;;;;;6263110;28;20300;-75
2023/05/13 14:54:55;;;;;;;5.05;2.80;;;;;;;;;;6259950;28;20300;-75
2023/05/13 14:58:01;;;;;;;3.80;2.90;;;;;;;;;;6262598;28;20395;-76
2023/05/13 15:01:06;;;;;;;3.92;3.20;;;;;;;;;;6263098;28;20513;-76
2023/05/13 15:04:13;;;;;;;5.22;3.13;;;;;;;;;;6261671;28;20307;-76
2023/05/13 15:07:18;;;;;;;3.83;3.30;;;;;;;;;;6262337;28;20304;-75
2023/05/13 15:10:25;;;;;;;4.78;3.47;;;;;;;;;;6262002;28;20308;-75
2023/05/13 15:13:33;;;;;;;4.32;2.88;;;;;;;;;;6264566;28;20288;-75
2023/05/13 15:16:39;;;;;;;6.10;3.13;;;;;;;;;;6261652;28;20280;-74
2023/05/13 15:19:44;;;;;;;10.68;3.20;;;;;;;;;;6261780;28;20307;-76
2023/05/13 15:22:49;;;;;;;3.33;2.85;;;;;;;;;;6262049;28;20456;-76
2023/05/13 15:25:56;;;;;;;6.30;3.00;;;;;;;;;;6261898;28;20288;-76
2023/05/13 15:29:01;;;;;;;6.63;3.63;;;;;;;;;;6261191;28;20479;-75
2023/05/13 15:32:09;;;;;;;5.03;3.22;;;;;;;;;;6263971;28;20600;-76
2023/05/13 15:35:22;;;;;;;7.60;3.13;;;;;;;;;;6253365;28;20299;-76
2023/05/13 15:38:27;;;;;;;3.92;2.95;;;;;;;;;;6261515;28;20291;-74
2023/05/13 15:41:40;;;;;;;6.93;3.03;;;;;;;;;;6261796;28;20303;-76
2023/05/13 15:44:45;;;;;;;5.38;3.17;;;;;;;;;;6261821;28;20584;-76
2023/05/13 15:47:51;;;;;;;3.85;2.88;;;;;;;;;;6261661;28;20291;-76
2023/05/13 15:50:56;;;;;;;3.67;2.90;;;;;;;;;;6261852;28;20595;-76
2023/05/13 15:54:01;;;;;;;4.05;3.03;;;;;;;;;;6261599;28;20319;-75
2023/05/13 15:57:08;;;;;;;3.70;3.10;;;;;;;;;;6261507;28;20307;-76
2023/05/13 16:00:15;;;;;;;3.25;3.05;;;;;;;;;;6261385;28;20483;-78
2023/05/13 16:03:20;;;;;;;4.20;3.08;;;;;;;;;;6260757;28;20304;-76
2023/05/13 16:06:25;;;;;;;3.20;3.00;;;;;;;;;;6261329;28;20336;-76
2023/05/13 16:09:30;;;;;;;11.90;3.10;;;;;;;;;;6260503;28;20296;-75
2023/05/13 16:12:37;;;;;;;3.80;2.70;;;;;;;;;;6267479;28;20603;-75
2023/05/13 16:15:42;;;;;;;3.55;3.03;;;;;;;;;;6236727;28;20317;-75
2023/05/13 16:18:47;;;;;;;3.28;2.80;;;;;;;;;;6236119;28;20304;-75
2023/05/13 16:21:52;;;;;;;6.50;3.20;;;;;;;;;;6268027;28;20300;-73
2023/05/13 16:25:00;;;;;;;3.28;2.97;;;;;;;;;;6238334;28;20292;-76
2023/05/13 16:28:07;;;;;;;4.22;3.00;;;;;;;;;;6236556;28;20572;-75
2023/05/13 16:31:12;;;;;;;9.88;3.20;;;;;;;;;;6235921;28;20620;-75
2023/05/13 16:34:17;;;;;;;5.78;3.10;;;;;;;;;;6235798;28;20296;-75
2023/05/13 16:37:22;;;;;;;6.45;3.25;;;;;;;;;;6235127;28;20304;-75
2023/05/13 16:40:27;;;;;;;4.63;2.90;;;;;;;;;;6236842;28;20449;-75
2023/05/13 16:43:33;;;;;;;3.30;3.00;;;;;;;;;;6234467;28;20291;-76
2023/05/13 16:46:38;;;;;;;7.22;3.22;;;;;;;;;;6236296;28;20450;-77
2023/05/13 16:49:44;;;;;;;8.30;3.15;;;;;;;;;;6234189;28;20434;-77
2023/05/13 16:52:49;;;;;;;9.93;3.35;;;;;;;;;;6235387;28;20292;-77
2023/05/13 16:55:54;;;;;;;6.32;3.50;;;;;;;;;;6234683;28;20420;-77
2023/05/13 16:59:01;;;;;;;5.90;3.17;;;;;;;;;;6235451;28;20312;-76
2023/05/13 17:02:07;;;;;;;6.63;3.85;;;;;;;;;;6235877;28;20294;-76
2023/05/13 17:05:12;;;;;;;3.53;3.33;;;;;;;;;;6235498;28;20292;-76
2023/05/13 17:08:17;;;;;;;8.25;3.65;;;;;;;;;;6235176;28;20296;-76
2023/05/13 17:11:22;;;;;;;3.95;3.50;;;;;;;;;;6242950;28;20340;-76
2023/05/13 17:14:30;;;;;;;5.70;3.60;;;;;;;;;;6251359;28;20288;-76
2023/05/13 17:17:35;;;;;;;7.63;4.03;;;;;;;;;;6235076;28;20400;-77
2023/05/13 17:20:40;;;;;;;8.75;3.92;;;;;;;;;;6235980;28;20369;-77
2023/05/13 17:23:45;;;;;;;4.57;4.15;;;;;;;;;;6235284;28;20327;-76
2023/05/13 17:26:50;;;;;;;5.55;3.72;;;;;;;;;;6235387;28;20284;-76
2023/05/13 17:29:57;;;;;;;5.63;3.50;;;;;;;;;;6234862;28;20556;-76
2023/05/13 17:33:02;;;;;;;4.15;3.33;;;;;;;;;;6237842;28;20549;-76
2023/05/13 17:36:07;;;;;;;4.55;3.60;;;;;;;;;;6238063;28;20296;-77
2023/05/13 17:39:13;;;;;;;3.63;3.30;;;;;;;;;;6233449;28;20296;-76
2023/05/13 17:42:18;;;;;;;6.00;3.78;;;;;;;;;;6235091;28;20470;-76
2023/05/13 17:45:24;;;;;;;10.15;3.45;;;;;;;;;;6234681;28;20588;-77
2023/05/13 17:48:30;;;;;;;3.38;3.17;;;;;;;;;;6234782;28;20478;-77
2023/05/13 17:51:35;;;;;;;5.97;3.53;;;;;;;;;;6236983;28;20296;-77
2023/05/13 17:54:40;;;;;;;4.00;3.63;;;;;;;;;;6239786;28;20295;-76
2023/05/13 17:57:45;;;;;;;6.47;3.40;;;;;;;;;;6239628;28;20284;-76
2023/05/13 18:00:52;;;;;;;3.90;3.28;;;;;;;;;;6240156;28;20300;-76
2023/05/13 18:03:57;;;;;;;5.68;3.92;;;;;;;;;;6239340;28;20596;-75
2023/05/13 18:07:02;;;;;;;9.15;4.00;;;;;;;;;;6239710;28;20299;-76
2023/05/13 18:10:09;;;;;;;9.70;3.40;;;;;;;;;;6254952;28;20304;-77
2023/05/13 18:13:16;;;;;;;5.78;3.75;;;;;;;;;;6239740;28;20296;-77
2023/05/13 18:16:22;;;;;;;4.15;3.47;;;;;;;;;;6263510;28;20299;-77
2023/05/13 18:19:27;;;;;;;6.63;3.38;;;;;;;;;;6248052;28;20640;-77
2023/05/13 18:22:34;;;;;;;8.57;3.50;;;;;;;;;;6238993;28;20269;-76
2023/05/13 18:25:39;;;;;;;5.65;3.40;;;;;;;;;;6237266;28;20544;-78
2023/05/13 18:28:59;;;;;;;3.80;3.25;;;;;;;;;;6254190;28;20284;-76
2023/05/13 18:32:06;;;;;;;5.78;3.75;;;;;;;;;;6244291;28;20287;-77
2023/05/13 18:35:14;;;;;;;4.00;3.60;;;;;;;;;;6256938;28;20292;-77